Saint-Prosper-De-Dorchester, Canada
Current Conditions -  °F | °C
As of 8:00 PM on Saturday 20 Dec 2014 (Local Time) from CYQB Reporting Station
Light Snow Light Snow  
Wind Chill: -13°   Ceiling: 1400
Heat Index: -7°   Visibility: 15mi
Dew Point: -10°   Wind: 8mph
Humidity: 80%   Direction: 100°E
Pressure: 30.37"   Gusts: NA
Location:  46.2°N, 70.48°W
Report Text: CYQB 210100Z 10007KT 15SM -SN OVC014 M07/M10 A3037 RMK SC8 SLP289
Loading
Personal Weather Stations






























Interactive Weather Map New forecast layout! Learn more

10-Day Weather Forecast

Advertisements
Track Severe Weather on mobile